sensor_id;sensor_type;location;lat;lon;timestamp;P1;durP1;ratioP1;P2;durP2;ratioP2
7150;SDS011;3617;48.836;9.172;2023-03-14T00:01:32;1.47;;;0.80;;
7150;SDS011;3617;48.836;9.172;2023-03-14T00:03:58;0.70;;;0.70;;
7150;SDS011;3617;48.836;9.172;2023-03-14T00:06:24;0.70;;;0.70;;
7150;SDS011;3617;48.836;9.172;2023-03-14T00:08:51;0.70;;;0.70;;
7150;SDS011;3617;48.836;9.172;2023-03-14T00:11:18;0.73;;;0.73;;
7150;SDS011;3617;48.836;9.172;2023-03-14T00:13:48;4.90;;;0.90;;
7150;SDS011;3617;48.836;9.172;2023-03-14T00:16:14;0.87;;;0.70;;
7150;SDS011;3617;48.836;9.172;2023-03-14T00:18:40;0.60;;;0.60;;
7150;SDS011;3617;48.836;9.172;2023-03-14T00:21:07;1.00;;;0.80;;
7150;SDS011;3617;48.836;9.172;2023-03-14T00:23:34;0.73;;;0.73;;
7150;SDS011;3617;48.836;9.172;2023-03-14T00:26:19;1.87;;;0.70;;
7150;SDS011;3617;48.836;9.172;2023-03-14T00:28:46;1.20;;;0.77;;
7150;SDS011;3617;48.836;9.172;2023-03-14T00:31:14;1.20;;;0.70;;
7150;SDS011;3617;48.836;9.172;2023-03-14T00:33:40;1.00;;;0.90;;
7150;SDS011;3617;48.836;9.172;2023-03-14T00:36:07;0.70;;;0.70;;
7150;SDS011;3617;48.836;9.172;2023-03-14T00:38:34;1.17;;;0.80;;
7150;SDS011;3617;48.836;9.172;2023-03-14T00:41:03;0.60;;;0.60;;
7150;SDS011;3617;48.836;9.172;2023-03-14T00:43:30;1.17;;;0.80;;
7150;SDS011;3617;48.836;9.172;2023-03-14T00:45:56;0.93;;;0.70;;
7150;SDS011;3617;48.836;9.172;2023-03-14T00:48:22;0.80;;;0.80;;
7150;SDS011;3617;48.836;9.172;2023-03-14T00:50:48;1.43;;;0.90;;
7150;SDS011;3617;48.836;9.172;2023-03-14T00:53:14;1.60;;;0.70;;
7150;SDS011;3617;48.836;9.172;2023-03-14T00:55:40;0.90;;;0.80;;
7150;SDS011;3617;48.836;9.172;2023-03-14T00:58:10;2.93;;;0.80;;
7150;SDS011;3617;48.836;9.172;2023-03-14T01:00:37;0.97;;;0.70;;
7150;SDS011;3617;48.836;9.172;2023-03-14T01:03:03;1.20;;;0.90;;
7150;SDS011;3617;48.836;9.172;2023-03-14T01:05:29;2.60;;;0.70;;
7150;SDS011;3617;48.836;9.172;2023-03-14T01:07:55;0.77;;;0.73;;
7150;SDS011;3617;48.836;9.172;2023-03-14T01:10:21;0.83;;;0.70;;
7150;SDS011;3617;48.836;9.172;2023-03-14T01:12:47;0.90;;;0.80;;
7150;SDS011;3617;48.836;9.172;2023-03-14T01:15:14;0.80;;;0.70;;
7150;SDS011;3617;48.836;9.172;2023-03-14T01:17:40;1.10;;;0.70;;
7150;SDS011;3617;48.836;9.172;2023-03-14T01:20:07;0.90;;;0.80;;
7150;SDS011;3617;48.836;9.172;2023-03-14T01:22:34;4.00;;;0.73;;
7150;SDS011;3617;48.836;9.172;2023-03-14T01:25:00;1.03;;;0.70;;
7150;SDS011;3617;48.836;9.172;2023-03-14T01:27:26;1.47;;;0.67;;
7150;SDS011;3617;48.836;9.172;2023-03-14T01:29:52;2.53;;;0.87;;
7150;SDS011;3617;48.836;9.172;2023-03-14T01:32:18;2.10;;;0.70;;
7150;SDS011;3617;48.836;9.172;2023-03-14T01:34:44;0.60;;;0.60;;
7150;SDS011;3617;48.836;9.172;2023-03-14T01:37:10;0.70;;;0.70;;
7150;SDS011;3617;48.836;9.172;2023-03-14T01:39:37;0.80;;;0.80;;
7150;SDS011;3617;48.836;9.172;2023-03-14T01:42:03;1.17;;;0.83;;
7150;SDS011;3617;48.836;9.172;2023-03-14T01:44:46;1.73;;;0.90;;
7150;SDS011;3617;48.836;9.172;2023-03-14T01:47:12;0.53;;;0.53;;
7150;SDS011;3617;48.836;9.172;2023-03-14T01:49:38;0.60;;;0.60;;
7150;SDS011;3617;48.836;9.172;2023-03-14T01:52:06;0.70;;;0.60;;
7150;SDS011;3617;48.836;9.172;2023-03-14T01:54:34;0.70;;;0.70;;
7150;SDS011;3617;48.836;9.172;2023-03-14T01:57:06;1.20;;;0.70;;
7150;SDS011;3617;48.836;9.172;2023-03-14T01:59:34;0.63;;;0.63;;
7150;SDS011;3617;48.836;9.172;2023-03-14T02:02:00;2.30;;;0.70;;
7150;SDS011;3617;48.836;9.172;2023-03-14T02:04:28;0.57;;;0.57;;
7150;SDS011;3617;48.836;9.172;2023-03-14T02:09:48;1.30;;;0.80;;
7150;SDS011;3617;48.836;9.172;2023-03-14T02:12:15;1.00;;;0.80;;
7150;SDS011;3617;48.836;9.172;2023-03-14T02:14:41;0.70;;;0.70;;
7150;SDS011;3617;48.836;9.172;2023-03-14T02:17:13;0.60;;;0.60;;
7150;SDS011;3617;48.836;9.172;2023-03-14T02:22:24;0.60;;;0.60;;
7150;SDS011;3617;48.836;9.172;2023-03-14T02:25:10;1.73;;;0.70;;
7150;SDS011;3617;48.836;9.172;2023-03-14T02:27:38;0.60;;;0.60;;
7150;SDS011;3617;48.836;9.172;2023-03-14T02:30:05;0.90;;;0.70;;
7150;SDS011;3617;48.836;9.172;2023-03-14T02:32:32;0.70;;;0.70;;
7150;SDS011;3617;48.836;9.172;2023-03-14T02:34:59;0.70;;;0.70;;
7150;SDS011;3617;48.836;9.172;2023-03-14T02:37:35;0.73;;;0.73;;
7150;SDS011;3617;48.836;9.172;2023-03-14T02:40:02;0.70;;;0.70;;
7150;SDS011;3617;48.836;9.172;2023-03-14T02:42:29;0.70;;;0.70;;
7150;SDS011;3617;48.836;9.172;2023-03-14T02:47:34;1.60;;;0.60;;
7150;SDS011;3617;48.836;9.172;2023-03-14T02:50:03;0.63;;;0.63;;
7150;SDS011;3617;48.836;9.172;2023-03-14T02:52:29;0.60;;;0.60;;
7150;SDS011;3617;48.836;9.172;2023-03-14T02:54:55;0.97;;;0.60;;
7150;SDS011;3617;48.836;9.172;2023-03-14T02:57:21;1.57;;;0.70;;
7150;SDS011;3617;48.836;9.172;2023-03-14T02:59:47;8.70;;;0.90;;
7150;SDS011;3617;48.836;9.172;2023-03-14T03:02:13;4.30;;;0.77;;
7150;SDS011;3617;48.836;9.172;2023-03-14T03:04:39;0.50;;;0.50;;
7150;SDS011;3617;48.836;9.172;2023-03-14T03:07:06;0.70;;;0.70;;
7150;SDS011;3617;48.836;9.172;2023-03-14T03:09:32;0.67;;;0.67;;
7150;SDS011;3617;48.836;9.172;2023-03-14T03:11:58;1.17;;;0.80;;
7150;SDS011;3617;48.836;9.172;2023-03-14T03:14:24;0.60;;;0.57;;
7150;SDS011;3617;48.836;9.172;2023-03-14T03:16:50;0.60;;;0.60;;
7150;SDS011;3617;48.836;9.172;2023-03-14T03:19:16;0.90;;;0.70;;
7150;SDS011;3617;48.836;9.172;2023-03-14T03:21:43;0.70;;;0.70;;
7150;SDS011;3617;48.836;9.172;2023-03-14T03:24:09;1.00;;;0.73;;
7150;SDS011;3617;48.836;9.172;2023-03-14T03:26:35;0.93;;;0.70;;
7150;SDS011;3617;48.836;9.172;2023-03-14T03:29:01;2.27;;;0.70;;
7150;SDS011;3617;48.836;9.172;2023-03-14T03:31:27;0.70;;;0.70;;
7150;SDS011;3617;48.836;9.172;2023-03-14T03:33:53;0.90;;;0.90;;
7150;SDS011;3617;48.836;9.172;2023-03-14T03:36:20;2.60;;;1.10;;
7150;SDS011;3617;48.836;9.172;2023-03-14T03:38:47;3.27;;;1.20;;
7150;SDS011;3617;48.836;9.172;2023-03-14T03:41:13;0.90;;;0.80;;
7150;SDS011;3617;48.836;9.172;2023-03-14T03:43:39;2.20;;;1.00;;
7150;SDS011;3617;48.836;9.172;2023-03-14T03:46:06;1.93;;;0.90;;
7150;SDS011;3617;48.836;9.172;2023-03-14T03:48:32;1.93;;;1.00;;
7150;SDS011;3617;48.836;9.172;2023-03-14T03:50:58;1.50;;;0.77;;
7150;SDS011;3617;48.836;9.172;2023-03-14T03:53:24;0.93;;;0.80;;
7150;SDS011;3617;48.836;9.172;2023-03-14T03:55:50;1.30;;;0.93;;
7150;SDS011;3617;48.836;9.172;2023-03-14T03:58:16;1.50;;;0.80;;
7150;SDS011;3617;48.836;9.172;2023-03-14T04:00:42;0.90;;;0.70;;
7150;SDS011;3617;48.836;9.172;2023-03-14T04:03:08;0.93;;;0.90;;
7150;SDS011;3617;48.836;9.172;2023-03-14T04:05:34;2.10;;;0.90;;
7150;SDS011;3617;48.836;9.172;2023-03-14T04:08:00;0.77;;;0.77;;
7150;SDS011;3617;48.836;9.172;2023-03-14T04:10:27;2.50;;;0.90;;
7150;SDS011;3617;48.836;9.172;2023-03-14T04:12:53;1.57;;;0.87;;
7150;SDS011;3617;48.836;9.172;2023-03-14T04:15:19;0.80;;;0.77;;
7150;SDS011;3617;48.836;9.172;2023-03-14T04:17:45;1.97;;;0.70;;
7150;SDS011;3617;48.836;9.172;2023-03-14T04:20:11;1.67;;;0.80;;
7150;SDS011;3617;48.836;9.172;2023-03-14T04:22:37;1.10;;;0.80;;
7150;SDS011;3617;48.836;9.172;2023-03-14T04:25:04;0.93;;;0.90;;
7150;SDS011;3617;48.836;9.172;2023-03-14T04:27:31;2.80;;;0.90;;
7150;SDS011;3617;48.836;9.172;2023-03-14T04:29:57;2.43;;;0.83;;
7150;SDS011;3617;48.836;9.172;2023-03-14T04:32:23;2.77;;;0.90;;
7150;SDS011;3617;48.836;9.172;2023-03-14T04:34:49;1.80;;;0.90;;
7150;SDS011;3617;48.836;9.172;2023-03-14T04:37:15;3.07;;;0.80;;
7150;SDS011;3617;48.836;9.172;2023-03-14T04:39:41;0.80;;;0.80;;
7150;SDS011;3617;48.836;9.172;2023-03-14T04:42:07;3.43;;;1.20;;
7150;SDS011;3617;48.836;9.172;2023-03-14T04:44:33;2.40;;;1.13;;
7150;SDS011;3617;48.836;9.172;2023-03-14T04:46:59;3.70;;;0.93;;
7150;SDS011;3617;48.836;9.172;2023-03-14T04:49:25;1.90;;;1.03;;
7150;SDS011;3617;48.836;9.172;2023-03-14T04:51:51;0.70;;;0.70;;
7150;SDS011;3617;48.836;9.172;2023-03-14T04:54:17;2.80;;;1.23;;
7150;SDS011;3617;48.836;9.172;2023-03-14T04:56:43;1.17;;;0.90;;
7150;SDS011;3617;48.836;9.172;2023-03-14T04:59:09;2.53;;;1.10;;
7150;SDS011;3617;48.836;9.172;2023-03-14T05:01:35;1.70;;;1.00;;
7150;SDS011;3617;48.836;9.172;2023-03-14T05:04:01;4.10;;;1.00;;
7150;SDS011;3617;48.836;9.172;2023-03-14T05:06:27;2.30;;;0.80;;
7150;SDS011;3617;48.836;9.172;2023-03-14T05:08:53;3.50;;;0.90;;
7150;SDS011;3617;48.836;9.172;2023-03-14T05:11:19;3.30;;;1.20;;
7150;SDS011;3617;48.836;9.172;2023-03-14T05:13:46;2.80;;;0.90;;
7150;SDS011;3617;48.836;9.172;2023-03-14T05:16:12;2.87;;;1.13;;
7150;SDS011;3617;48.836;9.172;2023-03-14T05:18:38;2.30;;;0.93;;
7150;SDS011;3617;48.836;9.172;2023-03-14T05:21:04;2.33;;;1.13;;
7150;SDS011;3617;48.836;9.172;2023-03-14T05:23:30;1.57;;;1.20;;
7150;SDS011;3617;48.836;9.172;2023-03-14T05:25:56;3.60;;;1.50;;
7150;SDS011;3617;48.836;9.172;2023-03-14T05:28:22;2.80;;;1.23;;
7150;SDS011;3617;48.836;9.172;2023-03-14T05:30:48;1.73;;;1.00;;
7150;SDS011;3617;48.836;9.172;2023-03-14T05:33:14;2.57;;;1.07;;
7150;SDS011;3617;48.836;9.172;2023-03-14T05:35:40;2.23;;;1.00;;
7150;SDS011;3617;48.836;9.172;2023-03-14T05:38:06;1.10;;;0.90;;
7150;SDS011;3617;48.836;9.172;2023-03-14T05:40:32;2.73;;;1.10;;
7150;SDS011;3617;48.836;9.172;2023-03-14T05:42:58;2.50;;;1.13;;
7150;SDS011;3617;48.836;9.172;2023-03-14T05:45:24;1.20;;;1.10;;
7150;SDS011;3617;48.836;9.172;2023-03-14T05:47:49;2.30;;;0.90;;
7150;SDS011;3617;48.836;9.172;2023-03-14T05:50:15;1.93;;;0.83;;
7150;SDS011;3617;48.836;9.172;2023-03-14T05:52:41;1.20;;;1.00;;
7150;SDS011;3617;48.836;9.172;2023-03-14T05:55:07;2.00;;;0.90;;
7150;SDS011;3617;48.836;9.172;2023-03-14T05:57:34;4.23;;;0.90;;
7150;SDS011;3617;48.836;9.172;2023-03-14T06:00:00;4.83;;;1.03;;
7150;SDS011;3617;48.836;9.172;2023-03-14T06:02:26;2.77;;;1.07;;
7150;SDS011;3617;48.836;9.172;2023-03-14T06:04:52;3.20;;;0.80;;
7150;SDS011;3617;48.836;9.172;2023-03-14T06:07:18;3.10;;;0.93;;
7150;SDS011;3617;48.836;9.172;2023-03-14T06:09:44;3.00;;;1.17;;
7150;SDS011;3617;48.836;9.172;2023-03-14T06:12:10;4.10;;;1.13;;
7150;SDS011;3617;48.836;9.172;2023-03-14T06:14:36;4.30;;;0.90;;
7150;SDS011;3617;48.836;9.172;2023-03-14T06:17:02;4.43;;;1.20;;
7150;SDS011;3617;48.836;9.172;2023-03-14T06:19:29;0.90;;;0.83;;
7150;SDS011;3617;48.836;9.172;2023-03-14T06:21:55;2.23;;;1.10;;
7150;SDS011;3617;48.836;9.172;2023-03-14T06:24:21;0.80;;;0.80;;
7150;SDS011;3617;48.836;9.172;2023-03-14T06:26:47;2.43;;;1.00;;
7150;SDS011;3617;48.836;9.172;2023-03-14T06:29:13;3.73;;;1.20;;
7150;SDS011;3617;48.836;9.172;2023-03-14T06:31:39;1.93;;;1.37;;
7150;SDS011;3617;48.836;9.172;2023-03-14T06:34:05;1.33;;;1.00;;
7150;SDS011;3617;48.836;9.172;2023-03-14T06:36:31;3.10;;;1.00;;
7150;SDS011;3617;48.836;9.172;2023-03-14T06:38:57;1.17;;;1.00;;
7150;SDS011;3617;48.836;9.172;2023-03-14T06:41:23;0.93;;;0.77;;
7150;SDS011;3617;48.836;9.172;2023-03-14T06:43:50;0.77;;;0.77;;
7150;SDS011;3617;48.836;9.172;2023-03-14T06:46:17;2.30;;;1.20;;
7150;SDS011;3617;48.836;9.172;2023-03-14T06:48:42;2.70;;;1.30;;
7150;SDS011;3617;48.836;9.172;2023-03-14T06:51:08;2.47;;;1.30;;
7150;SDS011;3617;48.836;9.172;2023-03-14T06:53:34;1.97;;;1.00;;
7150;SDS011;3617;48.836;9.172;2023-03-14T06:56:01;1.20;;;0.93;;
7150;SDS011;3617;48.836;9.172;2023-03-14T06:58:27;1.40;;;0.90;;
7150;SDS011;3617;48.836;9.172;2023-03-14T07:00:53;8.90;;;1.10;;
7150;SDS011;3617;48.836;9.172;2023-03-14T07:03:19;3.37;;;0.90;;
7150;SDS011;3617;48.836;9.172;2023-03-14T07:05:45;1.23;;;0.80;;
7150;SDS011;3617;48.836;9.172;2023-03-14T07:08:11;4.13;;;1.10;;
7150;SDS011;3617;48.836;9.172;2023-03-14T07:10:37;1.60;;;0.80;;
7150;SDS011;3617;48.836;9.172;2023-03-14T07:13:03;1.97;;;0.70;;
7150;SDS011;3617;48.836;9.172;2023-03-14T07:15:29;2.00;;;0.70;;
7150;SDS011;3617;48.836;9.172;2023-03-14T07:17:55;2.17;;;0.87;;
7150;SDS011;3617;48.836;9.172;2023-03-14T07:20:21;1.87;;;0.80;;
7150;SDS011;3617;48.836;9.172;2023-03-14T07:22:48;1.33;;;0.60;;
7150;SDS011;3617;48.836;9.172;2023-03-14T07:25:14;1.03;;;0.70;;
7150;SDS011;3617;48.836;9.172;2023-03-14T07:27:42;1.50;;;0.80;;
7150;SDS011;3617;48.836;9.172;2023-03-14T07:30:08;1.97;;;0.60;;
7150;SDS011;3617;48.836;9.172;2023-03-14T07:32:35;1.53;;;0.60;;
7150;SDS011;3617;48.836;9.172;2023-03-14T07:35:01;1.47;;;0.60;;
7150;SDS011;3617;48.836;9.172;2023-03-14T07:37:27;1.20;;;0.80;;
7150;SDS011;3617;48.836;9.172;2023-03-14T07:39:53;2.40;;;0.50;;
7150;SDS011;3617;48.836;9.172;2023-03-14T07:42:19;0.73;;;0.53;;
7150;SDS011;3617;48.836;9.172;2023-03-14T07:44:45;0.77;;;0.60;;
7150;SDS011;3617;48.836;9.172;2023-03-14T07:47:11;1.07;;;0.40;;
7150;SDS011;3617;48.836;9.172;2023-03-14T07:49:37;1.93;;;0.50;;
7150;SDS011;3617;48.836;9.172;2023-03-14T07:52:03;1.43;;;0.73;;
7150;SDS011;3617;48.836;9.172;2023-03-14T07:54:29;0.33;;;0.33;;
7150;SDS011;3617;48.836;9.172;2023-03-14T07:56:55;2.53;;;0.60;;
7150;SDS011;3617;48.836;9.172;2023-03-14T07:59:21;1.35;;;0.70;;
7150;SDS011;3617;48.836;9.172;2023-03-14T08:01:47;0.40;;;0.40;;
7150;SDS011;3617;48.836;9.172;2023-03-14T08:04:13;0.75;;;0.50;;
7150;SDS011;3617;48.836;9.172;2023-03-14T08:06:39;1.00;;;0.50;;
7150;SDS011;3617;48.836;9.172;2023-03-14T08:09:05;0.93;;;0.70;;
7150;SDS011;3617;48.836;9.172;2023-03-14T08:11:31;1.20;;;0.63;;
7150;SDS011;3617;48.836;9.172;2023-03-14T08:13:57;0.60;;;0.50;;
7150;SDS011;3617;48.836;9.172;2023-03-14T08:16:23;0.57;;;0.40;;
7150;SDS011;3617;48.836;9.172;2023-03-14T08:18:49;1.38;;;0.45;;
7150;SDS011;3617;48.836;9.172;2023-03-14T08:21:15;0.68;;;0.50;;
7150;SDS011;3617;48.836;9.172;2023-03-14T08:23:41;1.40;;;0.47;;
7150;SDS011;3617;48.836;9.172;2023-03-14T08:26:07;1.48;;;0.50;;
7150;SDS011;3617;48.836;9.172;2023-03-14T08:28:33;0.65;;;0.43;;
7150;SDS011;3617;48.836;9.172;2023-03-14T08:30:59;0.40;;;0.40;;
7150;SDS011;3617;48.836;9.172;2023-03-14T08:33:26;1.38;;;0.80;;
7150;SDS011;3617;48.836;9.172;2023-03-14T08:35:52;1.23;;;0.38;;
7150;SDS011;3617;48.836;9.172;2023-03-14T08:38:19;0.55;;;0.45;;
7150;SDS011;3617;48.836;9.172;2023-03-14T08:40:44;0.30;;;0.30;;
7150;SDS011;3617;48.836;9.172;2023-03-14T08:43:10;1.40;;;0.50;;
7150;SDS011;3617;48.836;9.172;2023-03-14T08:45:36;0.98;;;0.50;;
7150;SDS011;3617;48.836;9.172;2023-03-14T08:48:02;0.50;;;0.47;;
7150;SDS011;3617;48.836;9.172;2023-03-14T08:50:29;1.38;;;0.50;;
7150;SDS011;3617;48.836;9.172;2023-03-14T08:52:54;1.08;;;0.45;;
7150;SDS011;3617;48.836;9.172;2023-03-14T08:55:24;1.27;;;0.47;;
7150;SDS011;3617;48.836;9.172;2023-03-14T08:57:52;1.60;;;0.55;;
7150;SDS011;3617;48.836;9.172;2023-03-14T09:00:18;0.95;;;0.40;;
7150;SDS011;3617;48.836;9.172;2023-03-14T09:02:44;0.77;;;0.50;;
7150;SDS011;3617;48.836;9.172;2023-03-14T09:05:10;0.40;;;0.30;;
7150;SDS011;3617;48.836;9.172;2023-03-14T09:07:37;0.43;;;0.40;;
7150;SDS011;3617;48.836;9.172;2023-03-14T09:10:03;0.50;;;0.50;;
7150;SDS011;3617;48.836;9.172;2023-03-14T09:12:29;0.55;;;0.45;;
7150;SDS011;3617;48.836;9.172;2023-03-14T09:14:55;0.60;;;0.60;;
7150;SDS011;3617;48.836;9.172;2023-03-14T09:17:21;3.45;;;0.50;;
7150;SDS011;3617;48.836;9.172;2023-03-14T09:19:47;0.70;;;0.30;;
7150;SDS011;3617;48.836;9.172;2023-03-14T09:22:13;1.67;;;0.50;;
7150;SDS011;3617;48.836;9.172;2023-03-14T09:24:40;0.40;;;0.40;;
7150;SDS011;3617;48.836;9.172;2023-03-14T09:27:06;0.73;;;0.43;;
7150;SDS011;3617;48.836;9.172;2023-03-14T09:29:32;0.50;;;0.50;;
7150;SDS011;3617;48.836;9.172;2023-03-14T09:31:58;1.70;;;0.50;;
7150;SDS011;3617;48.836;9.172;2023-03-14T09:34:25;3.13;;;0.50;;
7150;SDS011;3617;48.836;9.172;2023-03-14T09:36:51;0.50;;;0.40;;
7150;SDS011;3617;48.836;9.172;2023-03-14T09:39:17;0.37;;;0.37;;
7150;SDS011;3617;48.836;9.172;2023-03-14T09:41:44;0.50;;;0.50;;
7150;SDS011;3617;48.836;9.172;2023-03-14T09:46:38;0.40;;;0.40;;
7150;SDS011;3617;48.836;9.172;2023-03-14T09:49:09;1.23;;;0.60;;
7150;SDS011;3617;48.836;9.172;2023-03-14T09:51:36;0.47;;;0.47;;
7150;SDS011;3617;48.836;9.172;2023-03-14T09:54:02;0.77;;;0.43;;
7150;SDS011;3617;48.836;9.172;2023-03-14T09:56:31;2.07;;;0.60;;
7150;SDS011;3617;48.836;9.172;2023-03-14T09:58:58;0.40;;;0.40;;
7150;SDS011;3617;48.836;9.172;2023-03-14T10:01:26;0.70;;;0.50;;
7150;SDS011;3617;48.836;9.172;2023-03-14T10:03:57;0.97;;;0.40;;
7150;SDS011;3617;48.836;9.172;2023-03-14T10:06:26;0.40;;;0.40;;
7150;SDS011;3617;48.836;9.172;2023-03-14T10:08:53;0.40;;;0.40;;
7150;SDS011;3617;48.836;9.172;2023-03-14T10:11:20;1.30;;;0.40;;
7150;SDS011;3617;48.836;9.172;2023-03-14T10:13:50;0.90;;;0.30;;
7150;SDS011;3617;48.836;9.172;2023-03-14T10:16:16;0.38;;;0.30;;
7150;SDS011;3617;48.836;9.172;2023-03-14T10:18:45;0.30;;;0.30;;
7150;SDS011;3617;48.836;9.172;2023-03-14T10:21:21;0.30;;;0.30;;
7150;SDS011;3617;48.836;9.172;2023-03-14T10:23:51;0.30;;;0.30;;
7150;SDS011;3617;48.836;9.172;2023-03-14T10:26:18;0.50;;;0.30;;
7150;SDS011;3617;48.836;9.172;2023-03-14T10:28:52;0.47;;;0.30;;
7150;SDS011;3617;48.836;9.172;2023-03-14T10:31:19;0.45;;;0.30;;
7150;SDS011;3617;48.836;9.172;2023-03-14T10:33:57;0.38;;;0.30;;
7150;SDS011;3617;48.836;9.172;2023-03-14T10:36:24;0.30;;;0.30;;
7150;SDS011;3617;48.836;9.172;2023-03-14T10:41:38;0.55;;;0.40;;
7150;SDS011;3617;48.836;9.172;2023-03-14T10:44:04;0.43;;;0.40;;
7150;SDS011;3617;48.836;9.172;2023-03-14T10:46:31;0.40;;;0.40;;
7150;SDS011;3617;48.836;9.172;2023-03-14T10:48:58;0.90;;;0.40;;
7150;SDS011;3617;48.836;9.172;2023-03-14T10:51:27;1.17;;;0.50;;
7150;SDS011;3617;48.836;9.172;2023-03-14T10:53:57;0.30;;;0.30;;
7150;SDS011;3617;48.836;9.172;2023-03-14T10:56:24;0.47;;;0.40;;
7150;SDS011;3617;48.836;9.172;2023-03-14T10:58:51;0.50;;;0.50;;
7150;SDS011;3617;48.836;9.172;2023-03-14T11:03:47;0.50;;;0.40;;
7150;SDS011;3617;48.836;9.172;2023-03-14T11:06:20;0.80;;;0.60;;
7150;SDS011;3617;48.836;9.172;2023-03-14T11:08:55;0.57;;;0.50;;
7150;SDS011;3617;48.836;9.172;2023-03-14T11:11:23;2.43;;;0.60;;
7150;SDS011;3617;48.836;9.172;2023-03-14T11:16:44;0.80;;;0.80;;
7150;SDS011;3617;48.836;9.172;2023-03-14T11:19:28;0.87;;;0.80;;
7150;SDS011;3617;48.836;9.172;2023-03-14T11:21:56;0.87;;;0.70;;
7150;SDS011;3617;48.836;9.172;2023-03-14T11:24:41;0.70;;;0.60;;
7150;SDS011;3617;48.836;9.172;2023-03-14T11:27:15;0.60;;;0.60;;
7150;SDS011;3617;48.836;9.172;2023-03-14T11:29:49;1.07;;;0.70;;
7150;SDS011;3617;48.836;9.172;2023-03-14T11:32:19;0.40;;;0.40;;
7150;SDS011;3617;48.836;9.172;2023-03-14T11:34:52;0.90;;;0.67;;
7150;SDS011;3617;48.836;9.172;2023-03-14T11:37:23;0.50;;;0.50;;
7150;SDS011;3617;48.836;9.172;2023-03-14T11:39:56;1.70;;;0.50;;
7150;SDS011;3617;48.836;9.172;2023-03-14T11:42:26;0.60;;;0.60;;
7150;SDS011;3617;48.836;9.172;2023-03-14T11:44:52;0.50;;;0.50;;
7150;SDS011;3617;48.836;9.172;2023-03-14T11:47:26;0.60;;;0.60;;
7150;SDS011;3617;48.836;9.172;2023-03-14T11:50:02;0.40;;;0.40;;
7150;SDS011;3617;48.836;9.172;2023-03-14T11:52:33;0.50;;;0.50;;
7150;SDS011;3617;48.836;9.172;2023-03-14T11:55:02;0.53;;;0.53;;
7150;SDS011;3617;48.836;9.172;2023-03-14T11:57:29;0.50;;;0.50;;
7150;SDS011;3617;48.836;9.172;2023-03-14T12:00:16;1.30;;;0.70;;
7150;SDS011;3617;48.836;9.172;2023-03-14T12:10:10;0.70;;;0.60;;
7150;SDS011;3617;48.836;9.172;2023-03-14T12:12:36;0.50;;;0.50;;
7150;SDS011;3617;48.836;9.172;2023-03-14T12:15:03;0.60;;;0.60;;
7150;SDS011;3617;48.836;9.172;2023-03-14T12:17:39;0.60;;;0.60;;
7150;SDS011;3617;48.836;9.172;2023-03-14T12:22:47;0.67;;;0.60;;
7150;SDS011;3617;48.836;9.172;2023-03-14T12:25:21;0.63;;;0.57;;
7150;SDS011;3617;48.836;9.172;2023-03-14T12:27:49;1.00;;;0.50;;
7150;SDS011;3617;48.836;9.172;2023-03-14T12:38:03;1.37;;;0.70;;
7150;SDS011;3617;48.836;9.172;2023-03-14T12:40:31;0.93;;;0.70;;
7150;SDS011;3617;48.836;9.172;2023-03-14T12:42:59;0.80;;;0.80;;
7150;SDS011;3617;48.836;9.172;2023-03-14T12:48:19;2.07;;;0.80;;
7150;SDS011;3617;48.836;9.172;2023-03-14T12:51:26;1.10;;;0.80;;
7150;SDS011;3617;48.836;9.172;2023-03-14T12:53:37;0.80;;;0.70;;
7150;SDS011;3617;48.836;9.172;2023-03-14T12:56:11;2.30;;;0.97;;
7150;SDS011;3617;48.836;9.172;2023-03-14T12:58:44;1.40;;;0.80;;
7150;SDS011;3617;48.836;9.172;2023-03-14T13:01:19;2.00;;;0.80;;
7150;SDS011;3617;48.836;9.172;2023-03-14T13:03:55;1.20;;;0.80;;
7150;SDS011;3617;48.836;9.172;2023-03-14T13:11:54;1.63;;;0.70;;
7150;SDS011;3617;48.836;9.172;2023-03-14T13:14:20;1.03;;;0.93;;
7150;SDS011;3617;48.836;9.172;2023-03-14T13:16:47;0.73;;;0.70;;
7150;SDS011;3617;48.836;9.172;2023-03-14T13:19:18;2.10;;;0.60;;
7150;SDS011;3617;48.836;9.172;2023-03-14T13:21:45;1.00;;;0.80;;
7150;SDS011;3617;48.836;9.172;2023-03-14T13:24:22;2.13;;;0.70;;
7150;SDS011;3617;48.836;9.172;2023-03-14T13:26:48;1.77;;;0.80;;
7150;SDS011;3617;48.836;9.172;2023-03-14T13:31:43;0.63;;;0.63;;
7150;SDS011;3617;48.836;9.172;2023-03-14T13:34:10;1.30;;;0.83;;
7150;SDS011;3617;48.836;9.172;2023-03-14T13:36:37;1.27;;;0.90;;
7150;SDS011;3617;48.836;9.172;2023-03-14T13:39:03;3.93;;;0.80;;
7150;SDS011;3617;48.836;9.172;2023-03-14T13:41:30;1.50;;;0.80;;
7150;SDS011;3617;48.836;9.172;2023-03-14T13:44:07;3.33;;;0.70;;
7150;SDS011;3617;48.836;9.172;2023-03-14T13:46:34;1.40;;;0.90;;
7150;SDS011;3617;48.836;9.172;2023-03-14T13:49:04;1.23;;;0.83;;
7150;SDS011;3617;48.836;9.172;2023-03-14T13:51:31;1.60;;;0.60;;
7150;SDS011;3617;48.836;9.172;2023-03-14T13:53:58;5.97;;;1.10;;
7150;SDS011;3617;48.836;9.172;2023-03-14T13:56:28;1.37;;;0.80;;
7150;SDS011;3617;48.836;9.172;2023-03-14T13:58:55;5.97;;;0.70;;
7150;SDS011;3617;48.836;9.172;2023-03-14T14:03:51;0.70;;;0.60;;
7150;SDS011;3617;48.836;9.172;2023-03-14T14:06:31;1.43;;;0.80;;
7150;SDS011;3617;48.836;9.172;2023-03-14T14:08:59;0.63;;;0.63;;
7150;SDS011;3617;48.836;9.172;2023-03-14T14:14:21;1.63;;;0.70;;
7150;SDS011;3617;48.836;9.172;2023-03-14T14:16:53;2.20;;;0.70;;
7150;SDS011;3617;48.836;9.172;2023-03-14T14:19:20;0.73;;;0.70;;
7150;SDS011;3617;48.836;9.172;2023-03-14T14:21:51;1.23;;;0.70;;
7150;SDS011;3617;48.836;9.172;2023-03-14T14:24:17;1.17;;;0.70;;
7150;SDS011;3617;48.836;9.172;2023-03-14T14:26:47;1.93;;;0.93;;
7150;SDS011;3617;48.836;9.172;2023-03-14T14:29:21;1.70;;;0.77;;
7150;SDS011;3617;48.836;9.172;2023-03-14T14:31:58;0.77;;;0.70;;
7150;SDS011;3617;48.836;9.172;2023-03-14T14:34:24;5.60;;;0.70;;
7150;SDS011;3617;48.836;9.172;2023-03-14T14:36:52;2.07;;;0.80;;
7150;SDS011;3617;48.836;9.172;2023-03-14T14:39:23;1.90;;;0.80;;
7150;SDS011;3617;48.836;9.172;2023-03-14T14:41:49;3.47;;;0.77;;
7150;SDS011;3617;48.836;9.172;2023-03-14T14:44:17;5.43;;;0.80;;
7150;SDS011;3617;48.836;9.172;2023-03-14T14:46:44;3.77;;;0.80;;
7150;SDS011;3617;48.836;9.172;2023-03-14T14:49:13;1.40;;;0.70;;
7150;SDS011;3617;48.836;9.172;2023-03-14T14:51:44;0.93;;;0.80;;
7150;SDS011;3617;48.836;9.172;2023-03-14T14:54:11;3.77;;;1.00;;
7150;SDS011;3617;48.836;9.172;2023-03-14T14:56:38;2.20;;;1.00;;
7150;SDS011;3617;48.836;9.172;2023-03-14T14:59:04;1.17;;;0.97;;
7150;SDS011;3617;48.836;9.172;2023-03-14T15:01:36;1.23;;;0.83;;
7150;SDS011;3617;48.836;9.172;2023-03-14T15:04:04;1.07;;;0.90;;
7150;SDS011;3617;48.836;9.172;2023-03-14T15:06:30;3.53;;;1.10;;
7150;SDS011;3617;48.836;9.172;2023-03-14T15:08:57;1.23;;;0.77;;
7150;SDS011;3617;48.836;9.172;2023-03-14T15:11:24;1.30;;;0.87;;
7150;SDS011;3617;48.836;9.172;2023-03-14T15:13:51;5.17;;;1.33;;
7150;SDS011;3617;48.836;9.172;2023-03-14T15:16:18;5.80;;;0.90;;
7150;SDS011;3617;48.836;9.172;2023-03-14T15:18:47;5.53;;;1.03;;
7150;SDS011;3617;48.836;9.172;2023-03-14T15:21:15;1.77;;;0.80;;
7150;SDS011;3617;48.836;9.172;2023-03-14T15:23:41;1.63;;;1.00;;
7150;SDS011;3617;48.836;9.172;2023-03-14T15:26:14;1.60;;;0.90;;
7150;SDS011;3617;48.836;9.172;2023-03-14T15:28:40;1.20;;;0.90;;
7150;SDS011;3617;48.836;9.172;2023-03-14T15:31:10;1.00;;;0.70;;
7150;SDS011;3617;48.836;9.172;2023-03-14T15:33:36;2.03;;;1.00;;
7150;SDS011;3617;48.836;9.172;2023-03-14T15:36:06;3.97;;;1.47;;
7150;SDS011;3617;48.836;9.172;2023-03-14T15:38:32;1.80;;;1.00;;
7150;SDS011;3617;48.836;9.172;2023-03-14T15:40:58;1.77;;;0.80;;
7150;SDS011;3617;48.836;9.172;2023-03-14T15:43:24;0.80;;;0.70;;
7150;SDS011;3617;48.836;9.172;2023-03-14T15:45:50;1.57;;;0.77;;
7150;SDS011;3617;48.836;9.172;2023-03-14T15:48:17;2.17;;;1.00;;
7150;SDS011;3617;48.836;9.172;2023-03-14T15:50:43;3.30;;;0.97;;
7150;SDS011;3617;48.836;9.172;2023-03-14T15:53:10;2.37;;;1.10;;
7150;SDS011;3617;48.836;9.172;2023-03-14T15:55:36;1.50;;;1.20;;
7150;SDS011;3617;48.836;9.172;2023-03-14T15:58:02;2.50;;;1.07;;
7150;SDS011;3617;48.836;9.172;2023-03-14T16:00:28;2.33;;;1.00;;
7150;SDS011;3617;48.836;9.172;2023-03-14T16:02:54;1.57;;;0.93;;
7150;SDS011;3617;48.836;9.172;2023-03-14T16:05:21;1.33;;;0.77;;
7150;SDS011;3617;48.836;9.172;2023-03-14T16:07:47;1.87;;;0.80;;
7150;SDS011;3617;48.836;9.172;2023-03-14T16:10:14;1.17;;;0.77;;